Time;durP1;ratioP1;P1;durP2;ratioP2;P2;SDS_P1;SDS_P2;PMS_P1;PMS_P2;Temp;Humidity;BMP_temperature;BMP_pressure;BME280_temperature;BME280_humidity;BME280_pressure;Samples;Min_cycle;Max_cycle;Signal;HPM_P1;HPM_P2
2022/04/23 00:01:39;;;;;;;9.13;5.65;;;10.70;99.90;;;;;;5100895;28;20127;-85
2022/04/23 00:04:04;;;;;;;9.90;5.70;;;11.10;99.90;;;;;;5095256;22;20052;-85
2022/04/23 00:06:30;;;;;;;10.15;5.55;;;10.70;99.90;;;;;;5097951;28;20043;-86
2022/04/23 00:08:56;;;;;;;11.13;5.93;;;10.90;99.90;;;;;;5080312;28;20070;-86
2022/04/23 00:11:22;;;;;;;12.18;6.53;;;11.00;99.90;;;;;;5092681;22;20064;-85
2022/04/23 00:13:48;;;;;;;11.10;6.05;;;10.70;99.90;;;;;;5043602;28;20067;-87
2022/04/23 00:16:15;;;;;;;10.88;5.53;;;10.90;99.90;;;;;;5065407;23;20058;-86
2022/04/23 00:18:42;;;;;;;10.23;6.13;;;10.70;99.90;;;;;;5100984;28;20052;-86
2022/04/23 00:21:08;;;;;;;11.00;5.78;;;11.20;99.90;;;;;;5099969;28;20082;-86
2022/04/23 00:23:34;;;;;;;9.18;5.57;;;10.70;99.90;;;;;;5109255;22;20471;-88
2022/04/23 00:26:00;;;;;;;11.27;6.47;;;10.60;99.90;;;;;;5098729;23;20376;-86
2022/04/23 00:31:04;;;;;;;12.77;6.10;;;10.60;99.90;;;;;;5122239;22;20143;-87
2022/04/23 00:33:29;;;;;;;11.10;6.45;;;10.60;99.90;;;;;;5091493;22;20517;-86
2022/04/23 00:35:55;;;;;;;10.10;6.30;;;10.50;99.90;;;;;;5080616;28;20048;-86
2022/04/23 00:38:21;;;;;;;12.25;6.57;;;10.70;99.90;;;;;;5120097;22;20051;-86
2022/04/23 00:40:46;;;;;;;10.93;6.72;;;10.50;99.90;;;;;;5077598;23;20098;-86
2022/04/23 00:43:34;;;;;;;13.40;6.72;;;10.70;99.90;;;;;;5062735;28;20060;-86
2022/04/23 00:46:01;;;;;;;10.75;6.80;;;10.40;99.90;;;;;;5098018;22;20491;-87
2022/04/23 00:48:26;;;;;;;11.85;6.68;;;10.80;99.90;;;;;;5092972;23;20445;-86
2022/04/23 00:50:55;;;;;;;10.85;6.75;;;10.50;99.90;;;;;;5081514;28;20048;-86
2022/04/23 00:53:22;;;;;;;12.32;6.47;;;10.30;99.90;;;;;;5106884;22;20081;-86
2022/04/23 00:55:48;;;;;;;11.95;6.93;;;10.50;99.90;;;;;;5081149;28;20047;-87
2022/04/23 00:58:16;;;;;;;11.52;6.72;;;10.40;99.90;;;;;;5080971;28;20105;-86
2022/04/23 01:00:42;;;;;;;11.85;7.18;;;10.20;99.90;;;;;;5097332;28;20036;-87
2022/04/23 01:03:09;;;;;;;11.73;7.30;;;10.20;99.90;;;;;;5081019;28;20040;-85
2022/04/23 01:05:34;;;;;;;14.02;8.45;;;10.20;99.90;;;;;;5109508;22;20084;-86
2022/04/23 01:08:02;;;;;;;14.20;8.23;;;10.30;99.90;;;;;;5105094;22;20079;-86
2022/04/23 01:10:29;;;;;;;13.90;8.25;;;10.60;99.90;;;;;;5096793;22;20052;-86
2022/04/23 01:12:55;;;;;;;13.57;8.32;;;10.20;99.90;;;;;;5096716;22;20143;-87
2022/04/23 01:15:23;;;;;;;13.10;9.20;;;10.30;99.90;;;;;;5099939;22;20514;-86
2022/04/23 01:17:49;;;;;;;14.07;9.13;;;10.30;99.90;;;;;;5075851;22;20233;-86
2022/04/23 01:20:15;;;;;;;13.35;8.32;;;10.30;99.90;;;;;;5102360;28;20040;-85
2022/04/23 01:22:43;;;;;;;13.20;8.38;;;10.50;99.90;;;;;;5101189;22;20052;-86
2022/04/23 01:25:12;;;;;;;15.98;9.98;;;10.60;99.90;;;;;;5097524;23;20407;-87
2022/04/23 01:27:40;;;;;;;13.18;9.30;;;10.40;99.90;;;;;;5089320;22;20051;-86
2022/04/23 01:30:07;;;;;;;15.52;9.68;;;10.40;99.90;;;;;;5089458;23;20475;-86
2022/04/23 01:32:33;;;;;;;15.13;9.60;;;10.40;99.90;;;;;;5111031;22;20138;-87
2022/04/23 01:34:59;;;;;;;14.68;9.13;;;10.40;99.90;;;;;;5102037;22;20459;-86
2022/04/23 01:37:32;;;;;;;14.82;9.48;;;10.40;99.90;;;;;;5099589;23;20503;-86
2022/04/23 01:39:58;;;;;;;13.93;9.10;;;10.80;99.90;;;;;;5060615;22;20493;-86
2022/04/23 01:44:51;;;;;;;15.55;9.73;;;10.40;99.90;;;;;;5144684;22;20082;-86
2022/04/23 01:47:17;;;;;;;16.23;9.70;;;10.40;99.90;;;;;;5058008;22;20056;-86
2022/04/23 01:49:44;;;;;;;14.82;10.02;;;10.80;99.90;;;;;;5024048;28;20045;-86
2022/04/23 01:52:10;;;;;;;16.35;9.80;;;10.50;99.90;;;;;;5060936;22;20048;-85
2022/04/23 01:54:36;;;;;;;13.93;9.82;;;10.30;99.90;;;;;;5060291;22;20057;-86
2022/04/23 01:57:03;;;;;;;14.48;9.18;;;10.30;99.90;;;;;;5059345;22;20059;-86
2022/04/23 01:59:29;;;;;;;14.90;9.20;;;10.30;99.90;;;;;;5061180;22;20139;-85
2022/04/23 02:01:55;;;;;;;12.80;9.23;;;10.50;99.90;;;;;;5075463;22;20052;-86
2022/04/23 02:04:28;;;;;;;15.77;9.45;;;10.50;99.90;;;;;;5066019;22;20059;-87
2022/04/23 02:06:54;;;;;;;13.38;9.52;;;10.20;99.90;;;;;;5085174;22;20131;-86
2022/04/23 02:09:19;;;;;;;15.02;9.38;;;10.10;99.90;;;;;;5069022;22;20076;-87
2022/04/23 02:11:45;;;;;;;15.13;8.95;;;10.00;99.90;;;;;;5081592;22;20051;-86
2022/04/23 02:14:11;;;;;;;15.82;9.68;;;10.00;99.90;;;;;;5066572;22;20056;-87
2022/04/23 02:16:37;;;;;;;14.35;9.13;;;10.00;99.90;;;;;;5078102;22;20076;-86
2022/04/23 02:19:03;;;;;;;14.60;9.27;;;9.90;99.90;;;;;;5084401;22;20056;-86
2022/04/23 02:21:30;;;;;;;16.88;9.02;;;9.90;99.90;;;;;;5121476;22;20048;-86
2022/04/23 02:23:55;;;;;;;14.30;9.27;;;9.90;99.90;;;;;;5098588;22;20109;-86
2022/04/23 02:26:22;;;;;;;16.20;9.68;;;10.30;99.90;;;;;;5089095;22;20055;-86
2022/04/23 02:28:49;;;;;;;16.73;9.35;;;9.70;99.90;;;;;;5096764;22;20534;-86
2022/04/23 02:31:14;;;;;;;14.65;8.75;;;9.70;99.90;;;;;;5081986;22;20048;-86
2022/04/23 02:33:40;;;;;;;14.05;8.80;;;9.90;99.90;;;;;;5063639;22;20060;-87
2022/04/23 02:36:07;;;;;;;15.13;9.60;;;9.70;99.90;;;;;;5078089;22;20051;-86
2022/04/23 02:38:39;;;;;;;15.65;9.40;;;9.70;99.90;;;;;;5057098;22;20076;-86
2022/04/23 02:41:06;;;;;;;15.93;9.25;;;9.60;99.90;;;;;;5063966;22;20139;-86
2022/04/23 02:43:35;;;;;;;15.68;9.35;;;9.70;99.90;;;;;;5071088;22;20532;-87
2022/04/23 02:46:02;;;;;;;15.07;9.23;;;9.60;99.90;;;;;;5059534;22;20155;-85
2022/04/23 02:48:32;;;;;;;12.93;9.27;;;9.60;99.90;;;;;;5067801;22;20048;-86
2022/04/23 02:50:58;;;;;;;15.38;9.70;;;9.50;99.90;;;;;;5071743;22;20039;-86
2022/04/23 02:53:29;;;;;;;14.50;9.18;;;9.50;99.90;;;;;;5100564;22;20475;-86
2022/04/23 02:55:56;;;;;;;15.00;9.38;;;9.40;99.90;;;;;;5032780;22;20049;-86
2022/04/23 02:58:29;;;;;;;15.68;9.55;;;9.40;99.90;;;;;;5093524;22;20052;-86
2022/04/23 03:00:58;;;;;;;14.63;9.10;;;9.30;99.90;;;;;;5088517;22;20596;-86
2022/04/23 03:03:25;;;;;;;19.15;9.48;;;9.30;99.90;;;;;;5096473;22;20056;-85
2022/04/23 03:05:53;;;;;;;15.93;9.75;;;9.90;99.90;;;;;;5089798;22;20343;-85
2022/04/23 03:08:19;;;;;;;15.68;10.32;;;9.30;99.90;;;;;;5088505;22;20082;-86
2022/04/23 03:10:44;;;;;;;15.68;10.52;;;9.90;99.90;;;;;;5102683;22;20059;-86
2022/04/23 03:13:10;;;;;;;16.90;10.38;;;9.20;99.90;;;;;;5107117;22;20132;-86
2022/04/23 03:15:36;;;;;;;18.42;10.98;;;9.60;99.90;;;;;;5088382;22;20127;-85
2022/04/23 03:18:13;;;;;;;17.20;10.20;;;9.30;99.90;;;;;;5078640;22;20107;-86
2022/04/23 03:20:43;;;;;;;16.10;10.45;;;9.30;99.90;;;;;;5106308;22;20050;-86
2022/04/23 03:23:09;;;;;;;15.38;10.95;;;9.20;99.90;;;;;;5085817;22;20078;-85
2022/04/23 03:25:35;;;;;;;16.90;10.40;;;9.20;99.90;;;;;;5085003;22;20127;-86
2022/04/23 03:28:02;;;;;;;18.02;10.25;;;9.20;99.90;;;;;;5078367;22;20054;-87
2022/04/23 03:30:28;;;;;;;16.33;9.85;;;9.30;99.90;;;;;;5093711;22;20059;-86
2022/04/23 03:32:54;;;;;;;15.27;10.07;;;9.20;99.90;;;;;;5099474;22;20044;-86
2022/04/23 03:35:21;;;;;;;18.45;11.18;;;9.20;99.90;;;;;;5088057;22;20515;-86
2022/04/23 03:37:48;;;;;;;19.48;10.95;;;9.20;99.90;;;;;;5080319;22;20060;-86
2022/04/23 03:40:15;;;;;;;18.35;10.98;;;9.10;99.90;;;;;;5095924;22;20075;-85
2022/04/23 03:42:45;;;;;;;16.38;10.88;;;9.10;99.90;;;;;;5081857;22;20060;-86
2022/04/23 03:45:10;;;;;;;16.80;11.15;;;9.10;99.90;;;;;;5088530;22;20428;-86
2022/04/23 03:47:36;;;;;;;17.20;11.27;;;9.10;99.90;;;;;;5099174;22;20136;-86
2022/04/23 03:50:04;;;;;;;16.48;10.63;;;9.10;99.90;;;;;;5077381;22;20198;-86
2022/04/23 03:52:32;;;;;;;17.30;10.32;;;9.10;99.90;;;;;;5103288;22;20048;-86
2022/04/23 03:54:58;;;;;;;16.42;11.50;;;9.70;99.90;;;;;;5091960;22;20059;-87
2022/04/23 03:59:53;;;;;;;16.13;10.82;;;9.10;99.90;;;;;;5089829;22;20433;-86
2022/04/23 04:02:19;;;;;;;18.30;10.88;;;9.10;99.90;;;;;;5110256;22;20518;-87
2022/04/23 04:04:45;;;;;;;16.98;10.98;;;9.10;99.90;;;;;;5092113;22;20052;-86
2022/04/23 04:07:19;;;;;;;17.98;11.10;;;9.00;99.90;;;;;;5066751;22;20092;-86
2022/04/23 04:09:45;;;;;;;16.92;10.38;;;9.00;99.90;;;;;;5065891;22;20040;-87
2022/04/23 04:12:12;;;;;;;16.30;10.15;;;9.10;99.90;;;;;;5101137;22;20048;-86
2022/04/23 04:14:37;;;;;;;18.63;11.45;;;9.60;99.90;;;;;;5099836;22;20381;-86
2022/04/23 04:17:09;;;;;;;18.25;10.90;;;9.00;99.90;;;;;;5101833;22;20062;-87
2022/04/23 04:19:35;;;;;;;15.52;10.40;;;9.10;99.90;;;;;;5099323;22;20052;-86
2022/04/23 04:22:04;;;;;;;16.67;11.20;;;9.00;99.90;;;;;;5108212;22;20570;-86
2022/04/23 04:27:01;;;;;;;15.55;10.55;;;8.90;99.90;;;;;;5125190;22;20044;-86
2022/04/23 04:29:33;;;;;;;15.50;10.48;;;8.90;99.90;;;;;;5080876;22;20484;-86
2022/04/23 04:31:58;;;;;;;17.83;10.52;;;9.40;99.90;;;;;;5080465;22;20072;-86
2022/04/23 04:34:31;;;;;;;16.92;10.73;;;8.90;99.90;;;;;;5057092;22;20053;-86
2022/04/23 04:37:11;;;;;;;14.68;9.63;;;8.90;99.90;;;;;;5085249;22;20139;-86
2022/04/23 04:39:38;;;;;;;16.02;10.10;;;8.90;99.90;;;;;;5078327;22;20080;-85
2022/04/23 04:42:05;;;;;;;16.85;10.70;;;9.10;99.90;;;;;;5060794;28;20044;-86
2022/04/23 04:44:31;;;;;;;18.38;10.73;;;8.90;99.90;;;;;;5063418;22;20064;-85
2022/04/23 04:46:56;;;;;;;17.77;10.48;;;8.90;99.90;;;;;;5053010;22;20037;-86
2022/04/23 04:49:22;;;;;;;17.60;10.77;;;9.20;99.90;;;;;;5066712;22;20506;-87
2022/04/23 04:51:49;;;;;;;14.88;10.65;;;8.80;99.90;;;;;;5056898;22;20052;-86
2022/04/23 04:54:17;;;;;;;16.33;10.20;;;8.90;99.90;;;;;;5082776;28;20046;-86
2022/04/23 04:56:47;;;;;;;15.52;10.13;;;9.30;99.90;;;;;;5093325;22;20053;-87
2022/04/23 04:59:13;;;;;;;17.98;10.93;;;8.80;99.90;;;;;;5068064;22;20087;-87
2022/04/23 05:01:39;;;;;;;16.27;10.23;;;8.90;99.90;;;;;;5066078;22;20045;-87
2022/04/23 05:04:05;;;;;;;15.88;10.40;;;9.00;99.90;;;;;;5074514;22;20166;-86
2022/04/23 05:06:31;;;;;;;15.75;10.23;;;9.00;99.90;;;;;;5094253;22;20052;-86
2022/04/23 05:08:57;;;;;;;16.08;10.30;;;8.90;99.90;;;;;;5053135;22;20056;-87
2022/04/23 05:11:22;;;;;;;15.43;9.88;;;8.90;99.90;;;;;;5021902;28;20480;-86
2022/04/23 05:13:48;;;;;;;17.52;10.27;;;9.60;99.90;;;;;;5039179;22;20044;-86
2022/04/23 05:16:14;;;;;;;16.92;9.95;;;9.00;99.90;;;;;;5098794;28;20047;-87
2022/04/23 05:18:40;;;;;;;13.85;9.05;;;9.40;99.90;;;;;;5084849;22;20043;-86
2022/04/23 05:21:06;;;;;;;16.83;9.73;;;9.10;99.90;;;;;;5058160;28;20442;-86
2022/04/23 05:23:31;;;;;;;14.07;9.40;;;9.80;99.90;;;;;;5058115;28;20050;-87
2022/04/23 05:25:57;;;;;;;13.77;9.65;;;9.40;99.90;;;;;;5060807;22;20056;-86
2022/04/23 05:28:30;;;;;;;12.93;9.13;;;9.50;99.90;;;;;;5067790;22;20049;-86
2022/04/23 05:30:56;;;;;;;14.05;8.82;;;9.70;99.90;;;;;;5098393;22;20482;-87
2022/04/23 05:33:22;;;;;;;12.77;9.32;;;9.20;99.90;;;;;;5107047;22;20066;-86
2022/04/23 05:35:48;;;;;;;11.43;8.50;;;9.20;99.90;;;;;;5103917;22;20030;-86
2022/04/23 05:38:14;;;;;;;14.43;9.00;;;9.30;99.90;;;;;;5077248;28;20146;-86
2022/04/23 05:40:39;;;;;;;12.00;8.85;;;9.30;99.90;;;;;;5076989;28;20080;-86
2022/04/23 05:43:06;;;;;;;14.23;9.27;;;9.40;99.90;;;;;;5097420;22;20063;-86
2022/04/23 05:45:31;;;;;;;13.57;8.52;;;10.00;99.90;;;;;;5088359;22;20521;-85
2022/04/23 05:47:57;;;;;;;14.00;8.85;;;9.70;99.90;;;;;;5087586;22;20059;-87
2022/04/23 05:50:23;;;;;;;12.40;8.60;;;10.00;99.90;;;;;;5101189;22;20518;-85
2022/04/23 05:52:50;;;;;;;11.73;8.45;;;9.70;99.90;;;;;;5107474;22;20135;-86
2022/04/23 05:55:16;;;;;;;14.77;8.80;;;9.70;99.90;;;;;;5079424;28;20079;-85
2022/04/23 05:57:42;;;;;;;13.55;9.02;;;10.40;99.90;;;;;;5096892;28;20058;-85
2022/04/23 06:00:09;;;;;;;11.25;8.50;;;10.20;99.90;;;;;;5098903;22;20130;-86
2022/04/23 06:02:36;;;;;;;12.60;8.40;;;9.80;99.90;;;;;;5087997;22;20044;-86
2022/04/23 06:05:03;;;;;;;13.20;8.55;;;9.90;99.90;;;;;;5094407;22;20059;-86
2022/04/23 06:09:59;;;;;;;13.40;8.15;;;10.00;99.90;;;;;;5133552;22;21166;-86
2022/04/23 06:12:25;;;;;;;14.02;9.02;;;10.10;99.90;;;;;;5081139;22;20507;-84
2022/04/23 06:14:51;;;;;;;11.70;8.45;;;10.20;99.90;;;;;;5084806;22;20052;-86
2022/04/23 06:17:23;;;;;;;10.90;7.97;;;10.20;99.90;;;;;;5088180;22;20057;-87
2022/04/23 06:19:49;;;;;;;11.80;8.90;;;10.30;99.90;;;;;;5050545;22;20049;-86
2022/04/23 06:22:15;;;;;;;13.13;8.98;;;10.40;99.90;;;;;;5076495;28;20048;-86
2022/04/23 06:24:41;;;;;;;12.57;8.48;;;10.40;99.90;;;;;;5060841;28;20064;-87
2022/04/23 06:27:06;;;;;;;12.80;8.88;;;10.50;99.90;;;;;;5061100;28;20495;-87
2022/04/23 06:29:32;;;;;;;11.73;8.65;;;11.00;99.90;;;;;;5060985;28;20040;-86
2022/04/23 06:32:04;;;;;;;13.05;8.45;;;10.40;99.90;;;;;;5064692;22;20507;-85
2022/04/23 06:34:30;;;;;;;13.40;9.13;;;10.50;99.90;;;;;;5078789;22;20083;-86
2022/04/23 06:36:55;;;;;;;17.92;9.15;;;10.60;99.90;;;;;;5079071;23;20050;-85
2022/04/23 06:39:21;;;;;;;12.30;8.32;;;10.70;99.90;;;;;;5084682;22;20498;-87
2022/04/23 06:41:47;;;;;;;12.32;8.90;;;10.80;99.90;;;;;;5103462;22;20023;-86
2022/04/23 06:44:13;;;;;;;12.20;8.32;;;10.80;99.90;;;;;;5084576;28;20051;-86
2022/04/23 06:46:39;;;;;;;12.27;8.68;;;10.90;99.90;;;;;;5104895;22;20054;-86
2022/04/23 06:49:05;;;;;;;15.60;9.50;;;11.00;99.90;;;;;;5081874;22;20053;-86
2022/04/23 06:51:32;;;;;;;11.30;8.55;;;11.10;99.90;;;;;;5036749;28;20041;-88
2022/04/23 06:53:57;;;;;;;12.30;8.73;;;11.00;99.90;;;;;;5057167;28;20048;-86
2022/04/23 06:56:23;;;;;;;13.55;8.85;;;11.10;99.90;;;;;;5041555;28;20040;-85
2022/04/23 06:58:49;;;;;;;13.27;9.25;;;11.10;99.90;;;;;;5058405;28;20037;-83
2022/04/23 07:01:18;;;;;;;13.48;8.82;;;11.20;99.90;;;;;;5055234;28;20041;-86
2022/04/23 07:03:43;;;;;;;12.73;8.65;;;11.20;99.90;;;;;;5043729;28;20033;-85
2022/04/23 07:06:11;;;;;;;14.02;9.68;;;11.20;99.90;;;;;;5037352;28;20175;-86
2022/04/23 07:08:39;;;;;;;11.68;9.07;;;11.20;99.90;;;;;;5037129;28;20041;-84
2022/04/23 07:11:05;;;;;;;14.63;8.52;;;11.30;99.90;;;;;;5036374;28;20049;-86
2022/04/23 07:13:30;;;;;;;11.80;8.38;;;11.50;99.90;;;;;;5037233;28;20052;-86
2022/04/23 07:15:56;;;;;;;13.32;8.98;;;12.00;99.90;;;;;;5036489;28;20037;-87
2022/04/23 07:18:21;;;;;;;14.80;9.05;;;11.50;99.90;;;;;;5053926;28;20049;-88
2022/04/23 07:20:47;;;;;;;12.50;9.10;;;11.70;99.90;;;;;;5036408;28;20052;-87
2022/04/23 07:25:57;;;;;;;12.70;8.93;;;11.70;99.90;;;;;;5089757;28;20075;-86
2022/04/23 07:28:24;;;;;;;15.38;9.10;;;11.70;99.90;;;;;;5080523;28;20048;-87
2022/04/23 07:30:50;;;;;;;13.45;8.90;;;11.90;99.90;;;;;;5061651;28;20065;-86
2022/04/23 07:38:44;;;;;;;13.40;9.27;;;12.10;99.90;;;;;;5078879;28;20084;-85
2022/04/23 07:41:11;;;;;;;14.45;9.05;;;12.20;99.90;;;;;;5098188;22;20050;-83
2022/04/23 07:43:37;;;;;;;11.80;8.68;;;12.30;99.90;;;;;;5104067;28;20047;-86
2022/04/23 07:46:03;;;;;;;12.80;8.60;;;12.60;99.90;;;;;;5138672;27;20152;-84
2022/04/23 07:48:29;;;;;;;11.98;8.73;;;12.50;99.90;;;;;;5148259;27;20039;-86
2022/04/23 07:50:54;;;;;;;12.88;8.88;;;12.50;99.90;;;;;;5107032;27;20414;-85
2022/04/23 07:53:20;;;;;;;10.57;8.27;;;12.60;99.90;;;;;;5126703;27;20043;-87
2022/04/23 07:55:46;;;;;;;12.90;8.40;;;12.70;99.90;;;;;;5124221;27;20054;-85
2022/04/23 07:58:11;;;;;;;13.55;8.52;;;12.80;99.90;;;;;;5121302;27;20122;-86
2022/04/23 08:00:38;;;;;;;12.07;8.27;;;12.80;99.90;;;;;;5120730;27;20058;-85
2022/04/23 08:03:05;;;;;;;12.98;8.75;;;13.00;99.90;;;;;;5103860;27;20042;-86
2022/04/23 08:05:32;;;;;;;13.18;8.70;;;12.90;99.90;;;;;;5147412;27;20071;-87
2022/04/23 08:07:59;;;;;;;13.40;8.65;;;12.90;99.90;;;;;;5109172;27;20394;-89
2022/04/23 08:10:25;;;;;;;13.80;9.05;;;13.40;99.90;;;;;;5139171;27;20039;-87
2022/04/23 08:12:52;;;;;;;15.38;9.32;;;13.10;99.90;;;;;;5120647;27;20448;-88
2022/04/23 08:15:17;;;;;;;13.32;8.70;;;13.50;99.90;;;;;;5103566;27;20070;-87
2022/04/23 08:17:43;;;;;;;13.80;9.10;;;13.40;99.90;;;;;;5119852;27;20478;-88
2022/04/23 08:20:10;;;;;;;13.63;8.57;;;13.60;99.90;;;;;;5120373;27;20047;-90
2022/04/23 08:22:36;;;;;;;13.15;8.00;;;13.60;99.90;;;;;;5120465;27;20087;-87
2022/04/23 08:25:03;;;;;;;17.88;8.02;;;13.60;99.90;;;;;;5138006;27;20043;-89
2022/04/23 08:27:28;;;;;;;13.65;7.88;;;13.70;99.90;;;;;;5121002;27;20077;-86
2022/04/23 08:32:55;;;;;;;11.38;8.32;;;13.90;99.90;;;;;;5083149;22;20058;-88
2022/04/23 08:35:20;;;;;;;11.55;7.75;;;13.90;99.90;;;;;;5116590;22;20056;-88
2022/04/23 08:37:46;;;;;;;12.18;7.60;;;13.90;99.90;;;;;;5106554;28;20406;-88
2022/04/23 08:40:13;;;;;;;11.98;7.63;;;14.00;99.90;;;;;;5098434;28;20059;-86
2022/04/23 08:42:39;;;;;;;11.05;7.38;;;14.00;99.90;;;;;;5097275;28;20053;-86
2022/04/23 08:45:07;;;;;;;10.50;7.32;;;14.40;99.90;;;;;;5099215;28;20105;-86
2022/04/23 08:47:36;;;;;;;10.68;7.60;;;14.30;99.90;;;;;;5100059;28;20119;-88
2022/04/23 08:50:05;;;;;;;13.30;7.68;;;14.50;99.90;;;;;;5086271;28;20478;-88
2022/04/23 08:52:32;;;;;;;14.32;8.35;;;14.50;99.90;;;;;;5095842;28;20044;-88
2022/04/23 08:55:03;;;;;;;12.68;8.50;;;14.60;99.90;;;;;;5087590;28;20139;-87
2022/04/23 08:57:29;;;;;;;10.18;7.53;;;14.60;99.90;;;;;;5090319;28;20101;-87
2022/04/23 08:59:56;;;;;;;10.68;7.28;;;14.60;99.90;;;;;;5095345;28;20486;-88
2022/04/23 09:02:27;;;;;;;11.38;8.45;;;15.00;99.90;;;;;;5092567;28;20096;-83
2022/04/23 09:04:56;;;;;;;11.70;8.10;;;14.70;99.90;;;;;;5100400;28;20058;-81
2022/04/23 09:07:27;;;;;;;11.93;7.50;;;14.90;99.90;;;;;;5106649;28;20040;-81
2022/04/23 09:09:55;;;;;;;10.73;7.40;;;14.90;99.90;;;;;;5076364;28;20051;-82
2022/04/23 09:12:24;;;;;;;11.18;7.72;;;15.00;99.90;;;;;;5111787;28;20032;-82
2022/04/23 09:14:51;;;;;;;10.88;6.85;;;15.00;99.90;;;;;;5111914;28;20051;-82
2022/04/23 09:25:40;;;;;;;10.32;7.50;;;15.30;99.90;;;;;;5092611;28;19920;-82
2022/04/23 09:28:19;;;;;;;10.50;8.15;;;15.30;99.90;;;;;;5094077;28;20043;-82
2022/04/23 09:30:49;;;;;;;14.00;7.70;;;15.40;99.90;;;;;;5094538;28;20420;-82
2022/04/23 09:33:15;;;;;;;10.88;7.75;;;15.70;99.90;;;;;;5075129;22;20388;-82
2022/04/23 09:35:57;;;;;;;10.32;7.25;;;15.60;99.90;;;;;;5071081;28;20045;-82
2022/04/23 09:38:24;;;;;;;21.25;8.23;;;15.70;99.90;;;;;;5072490;28;20056;-81
2022/04/23 09:40:52;;;;;;;11.32;7.60;;;15.80;99.90;;;;;;5037029;28;20105;-82
2022/04/23 09:43:31;;;;;;;15.82;7.50;;;15.90;99.90;;;;;;5039980;28;20049;-82
2022/04/23 09:46:03;;;;;;;13.07;8.05;;;15.90;99.90;;;;;;5039451;28;20079;-82
2022/04/23 09:48:30;;;;;;;18.85;7.90;;;15.90;99.90;;;;;;5053147;28;20045;-82
2022/04/23 09:50:59;;;;;;;10.63;7.53;;;15.90;99.90;;;;;;5069558;28;20056;-82
2022/04/23 09:53:27;;;;;;;15.30;8.18;;;15.80;99.90;;;;;;5045242;28;20080;-82
2022/04/23 09:55:59;;;;;;;12.18;7.35;;;16.00;99.90;;;;;;5027852;28;20127;-81
2022/04/23 09:58:31;;;;;;;16.65;7.60;;;16.20;99.90;;;;;;5054660;28;20504;-82
2022/04/23 10:00:58;;;;;;;12.77;7.03;;;16.30;99.90;;;;;;5050690;22;20055;-81
2022/04/23 10:03:32;;;;;;;17.55;7.70;;;16.30;99.90;;;;;;5074027;28;20074;-82
2022/04/23 10:06:00;;;;;;;13.50;7.63;;;16.40;99.90;;;;;;5091188;28;20043;-82
2022/04/23 10:08:30;;;;;;;15.40;7.90;;;16.40;99.90;;;;;;5074926;28;20067;-82
2022/04/23 10:11:11;;;;;;;10.15;7.20;;;16.50;99.90;;;;;;5076791;28;20036;-82
2022/04/23 10:13:40;;;;;;;11.85;7.22;;;16.50;99.90;;;;;;5093214;28;20048;-82
2022/04/23 10:16:07;;;;;;;8.90;6.60;;;16.60;99.90;;;;;;5091566;28;20066;-83
2022/04/23 10:18:38;;;;;;;8.80;6.35;;;16.80;99.90;;;;;;5067195;22;20049;-81
2022/04/23 10:21:09;;;;;;;16.73;8.30;;;17.10;99.90;;;;;;5034045;28;20477;-85
2022/04/23 10:23:55;;;;;;;9.90;7.43;;;17.10;99.90;;;;;;5033323;28;20049;-86
2022/04/23 10:26:24;;;;;;;8.88;6.68;;;17.10;99.90;;;;;;5033367;28;20388;-88
2022/04/23 10:28:50;;;;;;;16.45;7.60;;;;;;;;;;5033596;28;20084;-85
2022/04/23 10:31:17;;;;;;;16.15;7.88;;;17.10;99.90;;;;;;5017224;28;20384;-87
2022/04/23 10:33:52;;;;;;;11.25;7.00;;;17.10;99.90;;;;;;5017778;28;20041;-87
2022/04/23 10:36:21;;;;;;;16.50;7.93;;;17.10;99.90;;;;;;5033710;28;20064;-86
2022/04/23 10:39:08;;;;;;;43.80;9.43;;;17.20;99.90;;;;;;5033753;28;20392;-85
2022/04/23 10:41:35;;;;;;;35.05;8.60;;;17.20;99.90;;;;;;5016204;28;20038;-85
2022/04/23 10:44:04;;;;;;;15.27;7.25;;;17.40;99.70;;;;;;5032955;28;20052;-85
2022/04/23 10:46:49;;;;;;;11.43;7.38;;;17.60;99.90;;;;;;5016502;28;20045;-85
2022/04/23 10:49:22;;;;;;;10.70;7.20;;;17.70;97.60;;;;;;5032480;28;20050;-86
2022/04/23 10:51:54;;;;;;;12.57;6.65;;;17.60;98.00;;;;;;5049254;22;20023;-89
2022/04/23 10:54:40;;;;;;;11.95;7.07;;;17.70;98.30;;;;;;5059774;28;20051;-91
2022/04/23 10:57:13;;;;;;;11.90;6.97;;;17.90;97.50;;;;;;5076560;28;20048;-89
2022/04/23 10:59:48;;;;;;;10.57;7.13;;;18.00;97.20;;;;;;5070668;28;20615;-86
2022/04/23 11:02:29;;;;;;;13.32;7.80;;;17.90;95.90;;;;;;5078523;28;20048;-88
2022/04/23 11:13:23;;;;;;;10.48;7.50;;;18.30;96.40;;;;;;5076292;28;20051;-87
2022/04/23 11:16:08;;;;;;;9.90;7.10;;;18.30;96.10;;;;;;5075794;28;20048;-89
2022/04/23 11:18:39;;;;;;;10.20;6.72;;;18.40;95.20;;;;;;5066243;28;20046;-88
2022/04/23 11:21:26;;;;;;;11.38;7.35;;;18.50;95.80;;;;;;5082990;28;20040;-87
2022/04/23 11:23:57;;;;;;;9.10;7.13;;;18.60;94.60;;;;;;5079099;28;20465;-87
2022/04/23 11:26:47;;;;;;;10.63;7.07;;;18.60;95.20;;;;;;5083301;28;20121;-88
2022/04/23 11:29:17;;;;;;;9.38;7.30;;;18.50;92.70;;;;;;5062816;28;20048;-88
2022/04/23 11:31:53;;;;;;;10.57;7.32;;;18.70;92.90;;;;;;5062958;28;20076;-87
2022/04/23 11:34:24;;;;;;;13.50;7.05;;;18.70;92.50;;;;;;5079612;28;20541;-87
2022/04/23 11:36:51;;;;;;;9.52;7.00;;;18.80;92.90;;;;;;5063204;28;20486;-87
2022/04/23 11:39:17;;;;;;;17.67;7.38;;;18.90;92.00;;;;;;5079566;28;20488;-87
2022/04/23 11:41:48;;;;;;;12.52;7.22;;;18.90;93.00;;;;;;5062845;28;20057;-88
2022/04/23 11:44:17;;;;;;;18.08;8.15;;;18.90;91.60;;;;;;5062587;28;20047;-85
2022/04/23 11:46:49;;;;;;;14.77;7.50;;;18.80;90.50;;;;;;5079532;28;20047;-85
2022/04/23 11:49:31;;;;;;;39.47;9.55;;;19.10;91.90;;;;;;5097372;28;20483;-85
2022/04/23 11:52:05;;;;;;;12.55;6.68;;;19.10;91.80;;;;;;5083741;28;20448;-84
2022/04/23 11:54:32;;;;;;;10.05;6.38;;;;;;;;;;5106028;28;20048;-83
2022/04/23 11:56:58;;;;;;;55.33;10.00;;;19.40;91.40;;;;;;5085555;28;20052;-83
2022/04/23 11:59:23;;;;;;;10.10;6.30;;;19.60;91.70;;;;;;5104107;28;20517;-84
2022/04/23 12:01:49;;;;;;;106.32;12.93;;;19.40;90.40;;;;;;5105297;28;20058;-84
2022/04/23 12:04:15;;;;;;;10.65;5.95;;;19.50;90.50;;;;;;5101246;28;20051;-84
2022/04/23 12:06:45;;;;;;;8.85;6.13;;;19.40;90.40;;;;;;5119257;28;20407;-84
2022/04/23 12:09:11;;;;;;;8.88;6.50;;;19.80;91.00;;;;;;5100571;28;20043;-84
2022/04/23 12:11:37;;;;;;;9.68;6.75;;;19.70;90.40;;;;;;5099277;28;20124;-84
2022/04/23 12:14:04;;;;;;;10.20;6.70;;;19.60;90.10;;;;;;5119984;28;20432;-84
2022/04/23 12:16:32;;;;;;;10.95;6.60;;;19.60;89.30;;;;;;5120537;28;20131;-84
2022/04/23 12:19:02;;;;;;;12.65;7.35;;;19.60;89.30;;;;;;5098863;28;20047;-85
2022/04/23 12:21:29;;;;;;;10.20;7.25;;;19.60;88.00;;;;;;5099237;28;20047;-84
2022/04/23 12:23:55;;;;;;;9.95;6.93;;;19.50;88.10;;;;;;5098515;28;20094;-84
2022/04/23 12:26:21;;;;;;;7.53;5.85;;;19.70;88.80;;;;;;5098525;28;20482;-84
2022/04/23 12:42:30;;;;;;;16.48;6.72;;;20.40;85.60;;;;;;5098833;28;20075;-84
2022/04/23 12:44:56;;;;;;;25.35;7.75;;;20.50;84.00;;;;;;5102019;28;20040;-85
2022/04/23 12:47:33;;;;;;;7.13;6.13;;;20.20;81.10;;;;;;5117017;28;20050;-85
2022/04/23 12:50:05;;;;;;;9.38;6.47;;;20.20;80.60;;;;;;5102664;28;20043;-82
2022/04/23 12:52:37;;;;;;;8.63;5.90;;;20.20;80.50;;;;;;5106058;28;20048;-82
2022/04/23 12:55:17;;;;;;;7.80;6.22;;;20.50;81.10;;;;;;5105838;28;20428;-83
2022/04/23 12:57:45;;;;;;;8.57;6.55;;;20.60;80.30;;;;;;5103021;28;20044;-82
2022/04/23 13:00:14;;;;;;;11.13;6.25;;;20.50;77.80;;;;;;5127134;28;20043;-81
2022/04/23 13:02:40;;;;;;;13.45;6.20;;;20.70;79.40;;;;;;5126294;28;20043;-83
2022/04/23 13:05:08;;;;;;;55.08;8.07;;;20.80;78.90;;;;;;5107126;28;20048;-82
2022/04/23 13:10:19;;;;;;;16.40;6.70;;;20.90;75.60;;;;;;5142979;27;20040;-82
2022/04/23 13:12:44;;;;;;;13.63;5.85;;;20.80;75.30;;;;;;5144620;27;20494;-82
2022/04/23 13:15:11;;;;;;;119.55;15.35;;;20.80;73.60;;;;;;5121728;27;20455;-83
2022/04/23 13:17:38;;;;;;;12.05;5.90;;;20.90;74.80;;;;;;5130117;27;20065;-83
2022/04/23 13:20:11;;;;;;;32.22;7.32;;;21.00;75.00;;;;;;5143164;27;20039;-82
2022/04/23 13:22:37;;;;;;;17.00;5.70;;;21.00;74.40;;;;;;5127540;27;20039;-83
2022/04/23 13:25:04;;;;;;;9.60;4.82;;;20.70;72.40;;;;;;5144235;27;20424;-83
2022/04/23 13:27:30;;;;;;;8.65;4.68;;;20.80;70.00;;;;;;5146825;27;20070;-82
2022/04/23 13:29:56;;;;;;;7.40;4.47;;;20.80;71.20;;;;;;5147008;27;20043;-83
2022/04/23 13:32:22;;;;;;;6.35;4.72;;;20.80;70.60;;;;;;5148233;27;20050;-82
2022/04/23 13:34:48;;;;;;;7.97;5.32;;;21.10;72.10;;;;;;5147784;27;20043;-82
2022/04/23 13:37:13;;;;;;;8.25;5.18;;;21.10;70.60;;;;;;5148805;27;20049;-82
2022/04/23 13:39:39;;;;;;;7.45;4.53;;;21.30;72.60;;;;;;5126244;27;20074;-83
2022/04/23 13:42:05;;;;;;;6.05;4.20;;;21.50;72.00;;;;;;5120351;27;20478;-83